Terminal Aerodrome Forecast
Issued by NWS

Home | Current Version | Previous Version | Text Only | Print | Product List | Glossary On
Versions: 1 2 3 4 5 6 7 8 9 10 11 12 13 14 15
524
FTUS44 KLIX 221120
TAFMCB
TAF
KMCB 221120Z 2212/2312 13005KT 2SM SHRA VCTS BKN006 OVC015CB
      WS020/18035KT
     FM221500 16007KT 5SM SHRA VCTS OVC025CB
     FM221700 22008KT P6SM VCSH OVC050
     FM222100 29012KT P6SM BKN090
     FM230700 28005KT P6SM SCT090
     FM231100 27005KT 3SM BR SCT015=

USA.gov is the U.S. government's official web portal to all federal, state and local government web resources and services.